createdAt,value
2023-05-22T00:00:35.756Z,99.32
2023-05-22T00:03:39.163Z,99.03
2023-05-22T00:06:42.894Z,99.31
2023-05-22T00:09:46.600Z,100.00
2023-05-22T00:12:49.137Z,100.00
2023-05-22T00:15:52.099Z,100.00
2023-05-22T00:18:55.683Z,100.00
2023-05-22T00:21:58.567Z,100.00
2023-05-22T00:25:05.021Z,99.80
2023-05-22T00:28:07.806Z,99.68
2023-05-22T00:31:10.328Z,99.78
2023-05-22T00:34:13.119Z,99.32
2023-05-22T00:37:15.709Z,99.46
2023-05-22T00:40:18.712Z,99.80
2023-05-22T00:43:21.581Z,100.00
2023-05-22T00:46:24.551Z,100.00
2023-05-22T00:49:27.384Z,100.00
2023-05-22T00:52:30.524Z,100.00
2023-05-22T00:55:33.085Z,100.00
2023-05-22T00:58:35.830Z,100.00
2023-05-22T01:01:42.234Z,100.00
2023-05-22T01:04:48.542Z,100.00
2023-05-22T01:07:51.699Z,100.00
2023-05-22T01:11:02.807Z,100.00
2023-05-22T01:14:10.927Z,100.00
2023-05-22T01:17:35.640Z,100.00
2023-05-22T01:20:44.161Z,100.00
2023-05-22T01:24:11.681Z,100.00
2023-05-22T01:27:20.241Z,100.00
2023-05-22T01:30:54.052Z,100.00
2023-05-22T01:33:58.602Z,100.00
2023-05-22T01:37:02.134Z,100.00
2023-05-22T01:40:06.446Z,100.00
2023-05-22T01:43:09.380Z,100.00
2023-05-22T01:46:12.012Z,100.00
2023-05-22T01:49:15.452Z,100.00
2023-05-22T01:52:38.682Z,100.00
2023-05-22T01:56:00.988Z,100.00
2023-05-22T01:59:41.642Z,100.00
2023-05-22T02:02:55.781Z,100.00
2023-05-22T02:06:00.496Z,100.00
2023-05-22T02:09:03.432Z,100.00
2023-05-22T02:12:07.131Z,100.00
2023-05-22T02:15:09.909Z,100.00
2023-05-22T02:18:16.422Z,100.00
2023-05-22T02:21:19.086Z,100.00
2023-05-22T02:24:23.600Z,100.00
2023-05-22T02:27:26.826Z,100.00
2023-05-22T02:30:30.416Z,100.00
2023-05-22T02:33:33.335Z,100.00
2023-05-22T02:36:37.333Z,100.00
2023-05-22T02:39:40.025Z,100.00
2023-05-22T02:42:42.907Z,100.00
2023-05-22T02:45:45.915Z,100.00
2023-05-22T02:48:48.672Z,100.00
2023-05-22T02:51:51.238Z,100.00
2023-05-22T02:54:54.101Z,100.00
2023-05-22T02:57:56.834Z,100.00
2023-05-22T03:01:00.888Z,100.00
2023-05-22T03:04:03.449Z,100.00
2023-05-22T03:07:07.299Z,100.00
2023-05-22T03:10:10.042Z,100.00
2023-05-22T03:13:13.032Z,100.00
2023-05-22T03:16:15.654Z,100.00
2023-05-22T03:19:19.685Z,100.00
2023-05-22T03:22:23.164Z,100.00
2023-05-22T03:25:26.120Z,100.00
2023-05-22T03:28:28.573Z,100.00
2023-05-22T03:31:33.315Z,100.00
2023-05-22T03:34:36.990Z,100.00
2023-05-22T03:37:40.129Z,100.00
2023-05-22T03:40:42.733Z,100.00
2023-05-22T03:43:46.345Z,100.00
2023-05-22T03:46:48.955Z,100.00
2023-05-22T03:49:51.860Z,100.00
2023-05-22T03:52:54.471Z,100.00
2023-05-22T03:55:59.731Z,100.00
2023-05-22T03:59:02.241Z,100.00
2023-05-22T04:02:05.441Z,100.00
2023-05-22T04:05:09.440Z,100.00
2023-05-22T04:08:12.040Z,100.00
2023-05-22T04:11:15.998Z,100.00
2023-05-22T04:14:18.642Z,100.00
2023-05-22T04:17:22.146Z,98.33
2023-05-22T04:20:24.801Z,96.18
2023-05-22T04:23:27.613Z,94.81
2023-05-22T04:26:32.048Z,93.29
2023-05-22T04:29:36.546Z,92.06
2023-05-22T04:32:39.115Z,91.28
2023-05-22T04:35:42.392Z,91.16
2023-05-22T04:38:44.918Z,89.93
2023-05-22T04:41:47.668Z,89.74
2023-05-22T04:44:53.102Z,89.38
2023-05-22T04:47:56.376Z,90.67
2023-05-22T04:50:59.000Z,90.60
2023-05-22T04:54:01.827Z,91.05
2023-05-22T04:57:04.997Z,91.45
2023-05-22T05:00:08.396Z,91.43
2023-05-22T05:03:11.810Z,90.62
2023-05-22T05:06:14.790Z,90.20
2023-05-22T05:09:17.589Z,89.73
2023-05-22T05:12:20.408Z,89.26
2023-05-22T05:15:23.815Z,89.08
2023-05-22T05:18:28.141Z,88.61
2023-05-22T05:21:31.460Z,87.98
2023-05-22T05:24:35.403Z,86.13
2023-05-22T05:27:39.088Z,85.29
2023-05-22T05:30:42.226Z,84.73
2023-05-22T05:33:45.197Z,84.19
2023-05-22T05:36:47.990Z,84.18
2023-05-22T05:39:51.029Z,82.75
2023-05-22T05:42:53.780Z,82.73
2023-05-22T05:45:58.333Z,82.27
2023-05-22T05:49:06.492Z,82.15
2023-05-22T05:52:09.072Z,80.75
2023-05-22T05:55:12.150Z,80.09
2023-05-22T05:58:15.023Z,78.64
2023-05-22T06:01:20.317Z,77.79
2023-05-22T06:04:23.915Z,77.35
2023-05-22T06:07:28.735Z,76.55
2023-05-22T06:10:31.851Z,75.29
2023-05-22T06:13:34.641Z,73.24
2023-05-22T06:16:37.583Z,70.21
2023-05-22T06:19:41.165Z,70.20
2023-05-22T06:22:44.029Z,69.53
2023-05-22T06:25:46.649Z,70.61
2023-05-22T06:28:50.652Z,69.67
2023-05-22T06:31:54.164Z,69.30
2023-05-22T06:34:57.583Z,69.75
2023-05-22T06:38:00.764Z,70.56
2023-05-22T06:41:04.357Z,69.85
2023-05-22T06:44:06.865Z,70.61
2023-05-22T06:47:13.080Z,70.75
2023-05-22T06:50:17.077Z,71.29
2023-05-22T06:53:19.846Z,70.53
2023-05-22T06:56:22.909Z,70.10
2023-05-22T06:59:26.889Z,70.34
2023-05-22T07:02:31.821Z,69.58
2023-05-22T07:05:36.939Z,67.80
2023-05-22T07:08:40.311Z,67.55
2023-05-22T07:11:44.003Z,67.21
2023-05-22T07:14:47.456Z,62.10
2023-05-22T07:17:50.520Z,63.76
2023-05-22T07:20:53.627Z,63.65
2023-05-22T07:23:58.050Z,59.29
2023-05-22T07:27:01.283Z,55.33
2023-05-22T07:30:04.503Z,51.32
2023-05-22T07:33:07.593Z,47.84
2023-05-22T07:36:10.710Z,47.33
2023-05-22T07:39:13.952Z,44.04
2023-05-22T07:42:16.760Z,43.80
2023-05-22T07:45:20.485Z,44.59
2023-05-22T07:48:23.813Z,42.09
2023-05-22T07:51:26.528Z,40.17
2023-05-22T07:54:29.725Z,41.13
2023-05-22T07:57:36.724Z,40.35
2023-05-22T08:00:42.589Z,40.62
2023-05-22T08:03:45.454Z,36.92
2023-05-22T08:06:48.228Z,39.60
2023-05-22T08:09:51.238Z,37.54
2023-05-22T08:12:53.788Z,37.99
2023-05-22T08:16:00.244Z,39.63
2023-05-22T08:19:03.984Z,37.53
2023-05-22T08:22:06.800Z,38.09
2023-05-22T08:25:09.714Z,34.98
2023-05-22T08:28:12.459Z,34.81
2023-05-22T08:31:15.063Z,34.66
2023-05-22T08:34:18.029Z,37.45
2023-05-22T08:37:21.351Z,34.25
2023-05-22T08:40:24.429Z,34.78
2023-05-22T08:43:28.537Z,31.37
2023-05-22T08:46:32.454Z,38.32
2023-05-22T08:49:35.639Z,33.84
2023-05-22T08:52:51.662Z,35.41
2023-05-22T08:55:54.633Z,33.00
2023-05-22T08:58:57.715Z,35.06
2023-05-22T09:02:00.234Z,34.98
2023-05-22T09:05:05.378Z,32.95
2023-05-22T09:08:19.248Z,33.23
2023-05-22T09:11:23.113Z,30.43
2023-05-22T09:14:25.806Z,31.86
2023-05-22T09:17:28.699Z,32.68
2023-05-22T09:20:40.798Z,33.23
2023-05-22T09:23:43.813Z,33.21
2023-05-22T09:26:46.403Z,30.88
2023-05-22T09:29:55.438Z,30.59
2023-05-22T09:32:58.656Z,31.48
2023-05-22T09:36:01.627Z,31.95
2023-05-22T09:39:04.736Z,31.13
2023-05-22T09:42:09.804Z,29.90
2023-05-22T09:45:12.987Z,28.83
2023-05-22T09:48:17.213Z,27.60
2023-05-22T09:51:22.950Z,28.32
2023-05-22T09:54:26.407Z,27.85
2023-05-22T09:57:33.408Z,27.03
2023-05-22T10:00:36.853Z,28.46
2023-05-22T10:03:41.051Z,30.66
2023-05-22T10:06:46.071Z,32.09
2023-05-22T10:09:57.219Z,28.04
2023-05-22T10:13:09.139Z,28.11
2023-05-22T10:16:15.268Z,32.08
2023-05-22T10:19:18.015Z,28.21
2023-05-22T10:22:22.705Z,30.16
2023-05-22T10:25:26.108Z,30.40
2023-05-22T10:28:36.022Z,26.11
2023-05-22T10:31:43.264Z,27.12
2023-05-22T10:35:18.840Z,27.10
2023-05-22T10:38:47.110Z,28.47
2023-05-22T10:41:50.015Z,28.50
2023-05-22T10:44:53.273Z,27.81
2023-05-22T10:48:04.403Z,29.86
2023-05-22T10:51:09.818Z,30.73
2023-05-22T10:54:12.661Z,27.01
2023-05-22T10:57:17.301Z,28.36
2023-05-22T11:00:21.207Z,30.06
2023-05-22T11:03:24.231Z,29.33
2023-05-22T11:07:05.468Z,30.16
2023-05-22T11:10:08.186Z,29.62
2023-05-22T11:13:13.716Z,30.42
2023-05-22T11:16:16.209Z,29.12
2023-05-22T11:19:23.882Z,31.53
2023-05-22T11:22:32.005Z,29.67
2023-05-22T11:25:36.619Z,31.02
2023-05-22T11:28:39.461Z,30.42
2023-05-22T11:31:42.584Z,29.92
2023-05-22T11:34:45.382Z,30.22
2023-05-22T11:37:49.333Z,31.69
2023-05-22T11:40:52.222Z,30.30
2023-05-22T11:43:55.043Z,30.57
2023-05-22T11:46:57.535Z,33.33
2023-05-22T11:50:01.629Z,32.59
2023-05-22T11:53:04.252Z,33.25
2023-05-22T11:56:07.338Z,34.30
2023-05-22T11:59:09.839Z,35.63
2023-05-22T12:02:13.652Z,35.27
2023-05-22T12:05:16.814Z,37.44
2023-05-22T12:08:19.847Z,36.87
2023-05-22T12:11:23.464Z,35.69
2023-05-22T12:14:27.295Z,38.25
2023-05-22T12:17:30.112Z,38.80
2023-05-22T12:20:32.653Z,38.48
2023-05-22T12:23:35.493Z,37.27
2023-05-22T12:26:38.173Z,38.11
2023-05-22T12:29:42.116Z,36.92
2023-05-22T12:32:48.967Z,37.15
2023-05-22T12:35:54.675Z,39.13
2023-05-22T12:38:57.892Z,39.87
2023-05-22T12:42:00.690Z,38.70
2023-05-22T12:45:03.344Z,40.63
2023-05-22T12:48:06.214Z,38.24
2023-05-22T12:51:09.637Z,39.17
2023-05-22T12:54:12.415Z,40.00
2023-05-22T12:57:16.805Z,39.13
2023-05-22T13:00:19.909Z,41.21
2023-05-22T13:03:22.406Z,41.49
2023-05-22T13:06:25.216Z,40.00
2023-05-22T13:09:27.925Z,41.52
2023-05-22T13:12:32.307Z,43.03
2023-05-22T13:15:36.161Z,42.06
2023-05-22T13:18:38.868Z,42.05
2023-05-22T13:21:42.840Z,42.77
2023-05-22T13:24:45.990Z,43.04
2023-05-22T13:27:49.826Z,43.00
2023-05-22T13:30:52.632Z,42.46
2023-05-22T13:33:55.204Z,41.94
2023-05-22T13:36:57.994Z,42.18
2023-05-22T13:40:00.599Z,41.71
2023-05-22T13:43:03.399Z,43.30
2023-05-22T13:46:06.171Z,42.76
2023-05-22T13:49:08.914Z,42.25
2023-05-22T13:52:11.362Z,41.83
2023-05-22T13:55:14.206Z,41.54
2023-05-22T13:58:17.228Z,42.04
2023-05-22T14:01:20.000Z,42.10
2023-05-22T14:04:22.882Z,41.89
2023-05-22T14:07:25.485Z,42.39
2023-05-22T14:10:28.241Z,43.24
2023-05-22T14:13:30.810Z,43.79
2023-05-22T14:16:33.697Z,43.99
2023-05-22T14:19:38.407Z,43.86
2023-05-22T14:22:55.914Z,44.38
2023-05-22T14:25:59.437Z,44.52
2023-05-22T14:29:02.292Z,43.71
2023-05-22T14:32:05.289Z,45.54
2023-05-22T14:35:08.457Z,43.17
2023-05-22T14:38:10.943Z,42.71
2023-05-22T14:41:13.722Z,44.04
2023-05-22T14:44:16.479Z,43.05
2023-05-22T14:47:19.289Z,43.62
2023-05-22T14:50:21.936Z,44.49
2023-05-22T14:53:24.941Z,44.09
2023-05-22T14:56:28.332Z,44.10
2023-05-22T14:59:31.841Z,43.30
2023-05-22T15:02:34.387Z,43.00
2023-05-22T15:05:37.549Z,43.29
2023-05-22T15:08:40.292Z,43.74
2023-05-22T15:11:45.810Z,43.70
2023-05-22T15:14:48.541Z,45.45
2023-05-22T15:17:51.363Z,42.26
2023-05-22T15:20:53.978Z,41.46
2023-05-22T15:23:57.240Z,39.94
2023-05-22T15:26:59.732Z,40.54
2023-05-22T15:30:03.455Z,40.79
2023-05-22T15:33:06.030Z,41.32
2023-05-22T15:36:08.929Z,42.31
2023-05-22T15:39:11.474Z,41.77
2023-05-22T15:42:14.223Z,41.95
2023-05-22T15:45:16.721Z,41.91
2023-05-22T15:48:19.586Z,41.72
2023-05-22T15:51:22.047Z,43.88
2023-05-22T15:54:24.865Z,43.04
2023-05-22T15:57:28.801Z,43.98
2023-05-22T16:00:32.267Z,42.56
2023-05-22T16:03:35.045Z,42.83
2023-05-22T16:06:37.575Z,43.13
2023-05-22T16:09:41.842Z,42.78
2023-05-22T16:12:44.337Z,44.77
2023-05-22T16:15:47.124Z,44.09
2023-05-22T16:18:49.677Z,44.66
2023-05-22T16:21:52.524Z,45.63
2023-05-22T16:24:54.997Z,46.19
2023-05-22T16:27:57.757Z,46.11
2023-05-22T16:31:00.446Z,46.06
2023-05-22T16:34:03.680Z,48.08
2023-05-22T16:37:06.184Z,47.56
2023-05-22T16:40:09.465Z,47.92
2023-05-22T16:43:13.770Z,47.63
2023-05-22T16:46:16.908Z,46.87
2023-05-22T16:49:19.411Z,46.64
2023-05-22T16:52:23.648Z,46.28
2023-05-22T16:55:26.084Z,46.68
2023-05-22T16:58:29.210Z,46.85
2023-05-22T17:01:32.732Z,46.84
2023-05-22T17:04:35.512Z,48.08
2023-05-22T17:07:38.209Z,48.11
2023-05-22T17:10:41.728Z,48.68
2023-05-22T17:13:44.243Z,49.32
2023-05-22T17:16:47.760Z,48.90
2023-05-22T17:19:50.301Z,49.18
2023-05-22T17:22:53.108Z,49.00
2023-05-22T17:25:55.628Z,49.62
2023-05-22T17:28:58.377Z,49.89
2023-05-22T17:32:01.300Z,49.94
2023-05-22T17:35:06.483Z,49.85
2023-05-22T17:38:09.302Z,49.91
2023-05-22T17:41:12.097Z,50.01
2023-05-22T17:44:14.564Z,49.77
2023-05-22T17:47:18.353Z,49.74
2023-05-22T17:50:21.154Z,50.30
2023-05-22T17:53:23.915Z,55.66
2023-05-22T17:56:26.717Z,55.56
2023-05-22T17:59:30.665Z,58.88
2023-05-22T18:02:33.377Z,60.18
2023-05-22T18:05:36.283Z,62.04
2023-05-22T18:08:40.029Z,64.58
2023-05-22T18:11:42.787Z,66.20
2023-05-22T18:14:46.080Z,69.60
2023-05-22T18:17:48.857Z,68.52
2023-05-22T18:20:51.339Z,69.06
2023-05-22T18:23:55.242Z,69.91
2023-05-22T18:26:57.747Z,73.00
2023-05-22T18:30:00.553Z,73.04
2023-05-22T18:33:03.853Z,73.06
2023-05-22T18:36:06.766Z,74.95
2023-05-22T18:39:09.387Z,74.31
2023-05-22T18:42:12.127Z,75.92
2023-05-22T18:45:14.722Z,75.95
2023-05-22T18:48:17.500Z,78.84
2023-05-22T18:51:20.136Z,77.84
2023-05-22T18:54:22.866Z,79.18
2023-05-22T18:57:25.451Z,80.26
2023-05-22T19:00:28.362Z,81.48
2023-05-22T19:03:31.236Z,81.71
2023-05-22T19:06:34.354Z,83.47
2023-05-22T19:09:37.206Z,84.48
2023-05-22T19:12:40.007Z,84.68
2023-05-22T19:15:42.551Z,85.04
2023-05-22T19:18:45.458Z,85.19
2023-05-22T19:21:48.029Z,85.50
2023-05-22T19:24:51.231Z,84.68
2023-05-22T19:27:53.826Z,86.80
2023-05-22T19:30:58.628Z,86.53
2023-05-22T19:34:01.704Z,85.46
2023-05-22T19:37:04.594Z,85.85
2023-05-22T19:40:12.524Z,86.67
2023-05-22T19:43:15.413Z,92.15
2023-05-22T19:46:17.977Z,93.57
2023-05-22T19:49:20.816Z,90.20
2023-05-22T19:55:26.898Z,92.35
2023-05-22T19:58:29.433Z,94.75
2023-05-22T20:01:32.322Z,95.60
2023-05-22T20:04:35.989Z,97.56
2023-05-22T20:07:42.126Z,96.70
2023-05-22T20:10:47.995Z,97.51
2023-05-22T20:13:54.472Z,98.49
2023-05-22T20:16:59.009Z,99.15
2023-05-22T20:20:01.605Z,98.75
2023-05-22T20:23:04.553Z,98.74
2023-05-22T20:26:07.032Z,99.00
2023-05-22T20:29:09.807Z,100.00
2023-05-22T20:32:12.567Z,99.84
2023-05-22T20:35:18.807Z,98.50
2023-05-22T20:38:22.545Z,99.15
2023-05-22T20:41:25.423Z,99.79
2023-05-22T20:44:28.621Z,100.00
2023-05-22T20:47:31.764Z,100.00
2023-05-22T20:50:36.986Z,100.00
2023-05-22T20:53:42.155Z,100.00
2023-05-22T20:56:44.772Z,100.00
2023-05-22T20:59:47.610Z,100.00
2023-05-22T21:02:50.576Z,100.00
2023-05-22T21:05:53.806Z,100.00
2023-05-22T21:08:59.776Z,100.00
2023-05-22T21:12:03.951Z,100.00
2023-05-22T21:15:07.198Z,100.00
2023-05-22T21:18:10.069Z,100.00
2023-05-22T21:21:14.629Z,100.00
2023-05-22T21:24:17.440Z,100.00
2023-05-22T21:27:19.917Z,100.00
2023-05-22T21:30:22.774Z,100.00
2023-05-22T21:33:25.369Z,100.00
2023-05-22T21:36:29.753Z,100.00
2023-05-22T21:39:32.537Z,100.00
2023-05-22T21:42:45.764Z,100.00
2023-05-22T21:45:49.055Z,100.00
2023-05-22T21:48:51.839Z,100.00
2023-05-22T21:51:54.612Z,100.00
2023-05-22T21:54:58.045Z,100.00
2023-05-22T21:58:02.426Z,100.00
2023-05-22T22:01:05.132Z,100.00
2023-05-22T22:04:08.030Z,100.00
2023-05-22T22:07:11.773Z,100.00
2023-05-22T22:10:14.484Z,100.00
2023-05-22T22:13:17.048Z,100.00
2023-05-22T22:16:22.125Z,100.00
2023-05-22T22:19:24.881Z,100.00
2023-05-22T22:22:28.201Z,100.00
2023-05-22T22:25:30.724Z,100.00
2023-05-22T22:28:34.074Z,100.00
2023-05-22T22:31:37.086Z,100.00
2023-05-22T22:34:39.875Z,100.00
2023-05-22T22:37:42.860Z,100.00
2023-05-22T22:40:45.665Z,100.00
2023-05-22T22:43:48.208Z,100.00
2023-05-22T22:46:51.725Z,100.00
2023-05-22T22:49:57.240Z,100.00
2023-05-22T22:53:00.049Z,100.00
2023-05-22T22:56:02.806Z,100.00
2023-05-22T22:59:06.190Z,100.00
2023-05-22T23:02:08.887Z,100.00
2023-05-22T23:05:12.139Z,100.00
2023-05-22T23:08:14.832Z,100.00
2023-05-22T23:11:17.753Z,100.00
2023-05-22T23:14:20.460Z,100.00
2023-05-22T23:17:23.237Z,100.00
2023-05-22T23:20:25.808Z,100.00
2023-05-22T23:23:28.624Z,100.00
2023-05-22T23:26:31.805Z,100.00
2023-05-22T23:29:34.577Z,100.00
2023-05-22T23:32:37.099Z,100.00
2023-05-22T23:35:40.046Z,100.00
2023-05-22T23:38:42.803Z,100.00
2023-05-22T23:41:45.586Z,100.00
2023-05-22T23:44:48.116Z,100.00
2023-05-22T23:47:50.933Z,100.00
2023-05-22T23:50:53.460Z,100.00
2023-05-22T23:53:56.219Z,100.00
2023-05-22T23:56:58.754Z,100.00
